Terminal Aerodrome Forecast
Issued by NWS

Home | Current Version | Previous Version | Graphics & Text | Print | Product List | Glossary On
Versions: 1 2 3 4 5 6 7 8 9 10 11 12 13 14 15 16 17 18 19 20 21 22 23 24 25 26 27
000
FTUS43 KLOT 270157 AAA
TAFMDW
TAF AMD
KMDW 270157Z 2702/2724 15008KT P6SM VCSH SCT035 BKN080
      TEMPO 2704/2705 5SM -TSRA SCT015 BKN035CB
     FM270500 12005KT P6SM VCSH SCT035 OVC080
     FM270800 VRB03KT 6SM BR SCT020 BKN040
     FM271400 04008KT P6SM SCT030 BKN050
     FM272000 02012G18KT P6SM SCT020 BKN040=

USA.gov is the U.S. government's official web portal to all federal, state and local government web resources and services.